Aviation Digital Data Service (ADDS)

Output produced by METARs form (1402 UTC 20 January 2017)
found at http://www.aviationweather.gov/adds/metars/
 
KDFW 201135Z 2012/2118 23014KT P6SM SCT250 
     FM202200 21010KT P6SM BKN250 
     FM211600 21013KT P6SM VCSH BKN100